createdAt,value
2024-01-24T00:07:01.517Z,0.7
2024-01-24T00:17:01.455Z,0.3
2024-01-24T00:22:01.354Z,0.3
2024-01-24T00:27:01.882Z,0.1
2024-01-24T00:37:01.361Z,0.0
2024-01-24T00:52:01.448Z,0.0
2024-01-24T00:57:01.407Z,0.0
2024-01-24T01:02:01.291Z,0.0
2024-01-24T01:12:01.445Z,0.0
2024-01-24T01:22:01.672Z,0.0
2024-01-24T01:27:01.281Z,0.0
2024-01-24T01:42:01.469Z,0.0
2024-01-24T01:57:02.676Z,0.0
2024-01-24T02:02:01.491Z,0.0
2024-01-24T02:07:02.613Z,0.0
2024-01-24T02:22:01.777Z,0.0
2024-01-24T02:47:01.437Z,0.0
2024-01-24T02:52:01.448Z,0.2
2024-01-24T02:57:01.347Z,0.4
2024-01-24T03:12:01.517Z,0.6
2024-01-24T03:17:01.318Z,0.4
2024-01-24T03:22:01.424Z,0.5
2024-01-24T03:27:01.328Z,0.7
2024-01-24T03:33:01.615Z,0.9
2024-01-24T03:38:01.343Z,0.8
2024-01-24T03:43:01.290Z,0.8
2024-01-24T03:48:01.477Z,0.5
2024-01-24T03:53:01.429Z,0.3
2024-01-24T03:58:01.534Z,0.1
2024-01-24T04:03:01.336Z,0.0
2024-01-24T04:08:01.274Z,0.0
2024-01-24T04:18:01.809Z,0.1
2024-01-24T04:28:02.547Z,0.1
2024-01-24T04:33:01.761Z,0.1
2024-01-24T04:38:01.445Z,0.0
2024-01-24T04:48:02.347Z,0.0
2024-01-24T04:53:01.354Z,0.0
2024-01-24T04:58:01.578Z,0.0
2024-01-24T05:08:01.418Z,0.0
2024-01-24T05:13:01.421Z,0.0
2024-01-24T05:28:01.418Z,0.0
2024-01-24T05:43:01.675Z,0.0
2024-01-24T05:53:01.428Z,0.0
2024-01-24T06:08:01.352Z,0.0
2024-01-24T06:48:01.586Z,0.0
2024-01-24T07:03:01.793Z,0.0
2024-01-24T07:13:01.718Z,0.0
2024-01-24T07:18:01.590Z,0.1
2024-01-24T07:23:01.381Z,0.1
2024-01-24T07:38:01.445Z,0.1
2024-01-24T07:43:02.051Z,0.0
2024-01-24T08:18:01.832Z,0.0
2024-01-24T08:23:02.092Z,0.0
2024-01-24T08:38:02.679Z,0.0
2024-01-24T08:43:01.433Z,0.0
2024-01-24T08:53:01.567Z,0.0
2024-01-24T09:08:01.432Z,0.0
2024-01-24T09:23:01.484Z,0.0
2024-01-24T09:38:02.014Z,0.0
2024-01-24T09:53:03.520Z,0.0
2024-01-24T10:08:01.909Z,0.0
2024-01-24T10:38:02.546Z,0.1
2024-01-24T10:43:08.314Z,0.3
2024-01-24T10:58:01.975Z,0.3
2024-01-24T11:03:01.575Z,0.2
2024-01-24T11:08:06.139Z,0.0
2024-01-24T11:13:01.597Z,0.1
2024-01-24T11:18:01.498Z,0.1
2024-01-24T11:23:01.351Z,0.3
2024-01-24T11:28:02.520Z,0.5
2024-01-24T11:33:02.676Z,0.5
2024-01-24T11:43:01.783Z,0.6
2024-01-24T11:48:02.093Z,0.4
2024-01-24T11:53:01.445Z,0.6
2024-01-24T11:58:01.742Z,0.8
2024-01-24T12:03:02.276Z,0.8
2024-01-24T12:08:01.281Z,0.6
2024-01-24T12:13:03.186Z,0.6
2024-01-24T12:18:02.087Z,0.3
2024-01-24T12:23:06.654Z,0.1
2024-01-24T12:28:01.914Z,0.1
2024-01-24T12:33:01.566Z,0.1
2024-01-24T12:38:01.803Z,0.2
2024-01-24T12:43:01.988Z,0.2
2024-01-24T12:48:01.897Z,0.2
2024-01-24T12:58:01.752Z,0.1
2024-01-24T13:03:01.606Z,0.2
2024-01-24T13:08:01.568Z,0.3
2024-01-24T13:13:01.660Z,0.7
2024-01-24T13:23:02.107Z,0.9
2024-01-24T13:28:01.872Z,0.9
2024-01-24T13:33:01.765Z,1.0
2024-01-24T13:38:06.745Z,1.2
2024-01-24T13:43:01.727Z,1.2
2024-01-24T13:48:01.662Z,1.4
2024-01-24T13:53:01.540Z,1.4
2024-01-24T13:58:03.517Z,1.4
2024-01-24T14:03:01.721Z,1.1
2024-01-24T14:08:01.597Z,1.3
2024-01-24T14:13:04.032Z,1.4
2024-01-24T14:18:01.858Z,1.3
2024-01-24T14:23:01.281Z,1.5
2024-01-24T14:28:01.649Z,1.4
2024-01-24T14:33:01.573Z,1.4
2024-01-24T14:38:01.554Z,1.0
2024-01-24T14:43:01.471Z,1.2
2024-01-24T14:49:01.812Z,1.0
2024-01-24T14:54:01.504Z,0.9
2024-01-24T15:04:01.915Z,1.1
2024-01-24T15:09:01.358Z,1.1
2024-01-24T15:14:01.434Z,1.1
2024-01-24T15:19:01.884Z,1.1
2024-01-24T15:34:01.871Z,0.8
2024-01-24T15:39:01.635Z,0.7
2024-01-24T15:44:01.291Z,0.9
2024-01-24T15:49:01.898Z,0.7
2024-01-24T15:54:01.724Z,0.7
2024-01-24T15:59:01.753Z,0.9
2024-01-24T16:04:02.127Z,1.0
2024-01-24T16:09:01.549Z,1.0
2024-01-24T16:14:02.190Z,1.5
2024-01-24T16:19:01.570Z,1.3
2024-01-24T16:24:01.653Z,1.5
2024-01-24T16:29:01.339Z,1.4
2024-01-24T16:34:01.718Z,1.8
2024-01-24T16:39:01.391Z,1.6
2024-01-24T16:44:01.347Z,1.8
2024-01-24T16:49:01.618Z,1.6
2024-01-24T16:59:01.516Z,1.3
2024-01-24T17:04:06.650Z,1.5
2024-01-24T17:09:01.379Z,1.3
2024-01-24T17:14:01.451Z,1.4
2024-01-24T17:19:01.653Z,1.4
2024-01-24T17:24:01.426Z,1.2
2024-01-24T17:34:02.058Z,1.4
2024-01-24T17:39:03.811Z,1.2
2024-01-24T17:44:01.654Z,1.4
2024-01-24T17:49:01.969Z,1.6
2024-01-24T17:54:01.482Z,1.2
2024-01-24T17:59:01.820Z,1.2
2024-01-24T18:04:01.584Z,1.3
2024-01-24T18:09:02.188Z,1.5
2024-01-24T18:14:01.355Z,1.6
2024-01-24T18:19:02.001Z,1.8
2024-01-24T18:24:01.944Z,1.6
2024-01-24T18:29:01.778Z,1.7
2024-01-24T18:34:02.127Z,1.4
2024-01-24T18:44:05.370Z,1.8
2024-01-24T18:49:06.175Z,2.0
2024-01-24T19:00:03.369Z,1.7
2024-01-24T19:05:02.124Z,1.2
2024-01-24T19:10:01.782Z,1.4
2024-01-24T19:15:02.592Z,1.4
2024-01-24T19:20:02.197Z,1.6
2024-01-24T19:25:02.135Z,1.7
2024-01-24T19:30:02.323Z,1.6
2024-01-24T19:35:01.351Z,1.3
2024-01-24T19:40:02.033Z,1.4
2024-01-24T19:45:02.186Z,1.4
2024-01-24T19:50:01.397Z,1.5
2024-01-24T19:55:01.659Z,1.6
2024-01-24T20:00:02.394Z,1.6
2024-01-24T20:05:01.472Z,1.4
2024-01-24T20:10:01.582Z,1.0
2024-01-24T20:15:02.754Z,0.9
2024-01-24T20:20:01.798Z,1.0
2024-01-24T20:25:06.442Z,0.8
2024-01-24T20:30:02.029Z,0.7
2024-01-24T20:35:01.641Z,1.1
2024-01-24T20:40:01.594Z,1.1
2024-01-24T20:45:01.909Z,1.2
2024-01-24T20:50:01.737Z,1.1
2024-01-24T20:55:06.747Z,1.2
2024-01-24T21:00:02.591Z,1.4
2024-01-24T21:05:01.961Z,1.7
2024-01-24T21:15:11.754Z,1.9
2024-01-24T21:20:01.656Z,2.3
2024-01-24T21:30:02.262Z,2.1
2024-01-24T21:35:01.544Z,2.3
2024-01-24T21:40:01.609Z,2.2
2024-01-24T21:45:02.406Z,2.2
2024-01-24T21:50:02.161Z,2.2
2024-01-24T21:55:02.866Z,1.9
2024-01-24T22:00:02.994Z,1.7
2024-01-24T22:05:01.915Z,1.8
2024-01-24T22:10:02.390Z,1.4
2024-01-24T22:15:03.949Z,1.2
2024-01-24T22:20:01.839Z,1.4
2024-01-24T22:25:01.783Z,1.4
2024-01-24T22:30:03.112Z,1.5
2024-01-24T22:35:02.325Z,1.8
2024-01-24T22:40:02.858Z,2.0
2024-01-24T22:45:03.372Z,1.8
2024-01-24T22:50:02.468Z,2.0
2024-01-24T22:55:02.994Z,1.6
2024-01-24T23:00:02.626Z,1.2
2024-01-24T23:05:02.177Z,1.2
2024-01-24T23:15:05.134Z,1.4
2024-01-24T23:20:04.030Z,1.6
2024-01-24T23:25:03.878Z,1.8
2024-01-24T23:30:03.174Z,1.8
2024-01-24T23:35:03.474Z,1.8
2024-01-24T23:40:02.833Z,2.1
2024-01-24T23:45:02.729Z,2.0
2024-01-24T23:50:02.487Z,2.0
2024-01-24T23:55:01.623Z,2.0
